Milton, PA (17847)

06:42 PM EST del 21 Febbraio 2017 (GMT -0500)
NE corner of vineyard | | Change Station

Alt. 0 ft 41.00 °N, 76.89 °W | Updated 0 second ago

Molto nuvoloso
Molto nuvoloso
45.5 °F
Sembra 46 °F
N
2.8
Vento Variabile Vento da SSE
Gusts 3.0 mph

Oggi
Massima -- | Minima -- °F
--% Possibilità di precip.
Ieri
Massima -- | Minima -- °F
Precip. -- in
Pressione 30.15 in
Visibilità 10.0 miglia
Nuvole Sereno
Raffreddamento del vento 46 °F
Punto di rugiada 28 °F
Umidità 49%
Piovosità 0.00 in
Spessore del manto nevoso Non disponibile.
6:53 AM 5:49 PM
Luna calante, 22% visible
METAR KSEG 212053Z AUTO 19008KT 10SM CLR 09/M03 A3014 RMK AO2 SLP209 T00941028 58027
Pressione 30.15 in
Visibilità 10.0 miglia
Nuvole Sereno
Raffreddamento del vento 46 °F
Punto di rugiada 28 °F
Umidità 49%
Piovosità 0.00 in
Spessore del manto nevoso Non disponibile.
6:53 AM 5:49 PM
Luna calante, 22% visible
METAR KSEG 212053Z AUTO 19008KT 10SM CLR 09/M03 A3014 RMK AO2 SLP209 T00941028 58027

Get Your Daily Forecast Email!

Thanks for signing up!

Be on the lookout for a verification email in your inbox.

You'll start receiving the daily forecast at 8 AM.

×

10-Day Weather Forecast

Almanac

Astronomia

Feb. 21, 2017 Alba Tramonto
Ora attuale
Crepuscolo civile
Crepuscolo nautico
Crepuscolo astronomico
Luna
Estensione della luce visibile
Lunghezza del giorno
Tomorrow will be .
, % of the Moon is Illuminated

Gli estremi di oggi

State Highs State Lows

Community

WunderPhotos

Upload Photos

1,962,540 foto caricate!

WunderBlog® & News

Nearby

Qualità dell'aria

  Qualità dell'aria Indice AQ Inquinante
Not available.

Profondità neve

Stazione Profondità Altitudine

Attività sismica

Città  Distanza Mag. Data & Ora
Minimo Magnitudo Mostrato è 2.5.

Temperature delle acque costiere

Località Temperatura

Stations

Stazioni meteo nelle vicinanze

Ubicazione della stazione Temp. Raffreddamento del vento Punto di rugiada Umidità Vento Precip. Alt. Aggiornato Tipo
                   

Watches & Warnings

There are currently no watches in effect.